createdAt,value
2019-05-01T00:01:49.993Z,8.26
2019-05-01T00:04:37.735Z,8.37
2019-05-01T00:07:14.486Z,8.43
2019-05-01T00:09:43.035Z,8.49
2019-05-01T00:12:11.619Z,8.46
2019-05-01T00:14:40.277Z,8.51
2019-05-01T00:17:10.463Z,8.48
2019-05-01T00:19:39.203Z,8.51
2019-05-01T00:22:07.794Z,8.47
2019-05-01T00:24:36.375Z,8.44
2019-05-01T00:27:04.978Z,8.39
2019-05-01T00:29:36.567Z,8.37
2019-05-01T00:32:05.160Z,8.42
2019-05-01T00:34:33.719Z,8.47
2019-05-01T00:37:04.727Z,8.53
2019-05-01T00:39:33.471Z,8.59
2019-05-01T00:42:02.103Z,8.62
2019-05-01T00:44:31.089Z,8.66
2019-05-01T00:46:59.970Z,8.66
2019-05-01T00:49:28.535Z,8.67
2019-05-01T00:51:57.726Z,8.69
2019-05-01T00:54:26.837Z,8.74
2019-05-01T00:57:04.848Z,8.75
2019-05-01T00:59:45.648Z,8.66
2019-05-01T01:02:22.548Z,8.54
2019-05-01T01:04:51.171Z,8.52
2019-05-01T01:07:19.930Z,8.73
2019-05-01T01:09:48.492Z,8.73
2019-05-01T01:12:17.087Z,8.92
2019-05-01T01:14:45.643Z,8.89
2019-05-01T01:17:14.597Z,8.91
2019-05-01T01:19:43.325Z,8.94
2019-05-01T01:22:11.924Z,8.94
2019-05-01T01:24:40.481Z,8.87
2019-05-01T01:27:09.053Z,8.85
2019-05-01T01:29:40.454Z,8.85
2019-05-01T01:32:09.044Z,8.88
2019-05-01T01:34:37.619Z,8.89
2019-05-01T01:37:06.215Z,8.90
2019-05-01T01:39:34.789Z,8.94
2019-05-01T01:42:03.364Z,8.91
2019-05-01T01:44:49.724Z,8.87
2019-05-01T01:47:18.304Z,8.83
2019-05-01T01:49:46.853Z,8.84
2019-05-01T01:52:15.427Z,8.89
2019-05-01T01:54:43.998Z,8.93
2019-05-01T01:57:12.559Z,8.95
2019-05-01T01:59:41.124Z,8.96
2019-05-01T02:02:35.331Z,8.94
2019-05-01T02:05:10.801Z,8.97
2019-05-01T02:07:39.368Z,8.95
2019-05-01T02:10:09.657Z,9.01
2019-05-01T02:12:38.317Z,9.00
2019-05-01T02:15:08.452Z,9.03
2019-05-01T02:17:37.018Z,9.02
2019-05-01T02:20:06.995Z,9.01
2019-05-01T02:22:35.931Z,8.92
2019-05-01T02:25:06.066Z,8.90
2019-05-01T02:27:41.434Z,8.90
2019-05-01T02:33:01.336Z,8.92
2019-05-01T02:35:33.308Z,8.92
2019-05-01T02:38:02.073Z,8.83
2019-05-01T02:41:02.228Z,8.83
2019-05-01T02:43:33.161Z,8.84
2019-05-01T02:46:02.573Z,8.83
2019-05-01T02:48:33.126Z,8.76
2019-05-01T02:51:02.087Z,8.76
2019-05-01T02:53:30.657Z,8.87
2019-05-01T02:56:25.978Z,8.87
2019-05-01T02:58:55.086Z,8.93
2019-05-01T03:01:23.947Z,9.03
2019-05-01T03:03:52.512Z,9.14
2019-05-01T03:06:21.429Z,8.91
2019-05-01T03:08:50.882Z,8.91
2019-05-01T03:11:19.459Z,8.92
2019-05-01T03:13:50.357Z,8.93
2019-05-01T03:16:18.936Z,8.97
2019-05-01T03:18:50.950Z,8.98
2019-05-01T03:21:41.595Z,9.00
2019-05-01T03:24:13.803Z,8.96
2019-05-01T03:26:42.394Z,8.96
2019-05-01T03:29:12.239Z,9.00
2019-05-01T03:31:40.837Z,9.03
2019-05-01T03:34:09.394Z,9.02
2019-05-01T03:36:38.152Z,8.98
2019-05-01T03:39:06.736Z,8.94
2019-05-01T03:41:35.471Z,8.95
2019-05-01T03:44:07.533Z,8.93
2019-05-01T03:46:36.434Z,8.88
2019-05-01T03:49:05.021Z,8.84
2019-05-01T03:51:33.645Z,8.84
2019-05-01T03:54:02.853Z,8.92
2019-05-01T03:56:31.776Z,8.79
2019-05-01T03:59:00.516Z,8.79
2019-05-01T04:01:48.447Z,8.83
2019-05-01T04:04:19.774Z,8.99
2019-05-01T04:06:48.374Z,8.96
2019-05-01T04:09:19.388Z,9.02
2019-05-01T04:11:50.138Z,9.00
2019-05-01T04:14:18.716Z,9.06
2019-05-01T04:16:50.505Z,9.13
2019-05-01T04:19:19.074Z,9.13
2019-05-01T04:21:54.628Z,9.09
2019-05-01T04:24:23.220Z,9.06
2019-05-01T04:26:54.210Z,8.99
2019-05-01T04:29:31.036Z,8.95
2019-05-01T04:32:18.661Z,9.01
2019-05-01T04:34:58.817Z,9.04
2019-05-01T04:37:27.383Z,9.09
2019-05-01T04:39:55.960Z,9.13
2019-05-01T04:42:24.528Z,9.09
2019-05-01T04:44:53.109Z,9.20
2019-05-01T04:47:21.673Z,9.25
2019-05-01T04:49:50.231Z,9.23
2019-05-01T04:52:19.002Z,9.26
2019-05-01T04:54:47.911Z,9.26
2019-05-01T04:57:16.494Z,9.26
2019-05-01T04:59:45.078Z,9.11
2019-05-01T05:02:16.385Z,9.06
2019-05-01T05:04:44.951Z,9.07
2019-05-01T05:07:15.078Z,9.19
2019-05-01T05:09:44.915Z,9.12
2019-05-01T05:12:19.474Z,9.19
2019-05-01T05:14:52.808Z,9.24
2019-05-01T05:17:24.788Z,9.32
2019-05-01T05:19:53.382Z,9.47
2019-05-01T05:22:22.286Z,9.53
2019-05-01T05:24:51.088Z,9.51
2019-05-01T05:27:21.675Z,9.46
2019-05-01T05:29:56.528Z,9.46
2019-05-01T05:32:28.554Z,9.51
2019-05-01T05:34:57.374Z,9.58
2019-05-01T05:37:29.550Z,9.69
2019-05-01T05:39:59.090Z,9.64
2019-05-01T05:42:27.640Z,9.74
2019-05-01T05:44:56.217Z,9.76
2019-05-01T05:47:25.586Z,9.89
2019-05-01T05:49:55.879Z,9.89
2019-05-01T05:52:41.893Z,10.01
2019-05-01T05:55:16.350Z,10.01
2019-05-01T05:58:22.825Z,9.94
2019-05-01T06:00:59.754Z,10.01
2019-05-01T06:04:03.534Z,9.87
2019-05-01T06:06:40.284Z,9.97
2019-05-01T06:09:13.883Z,9.88
2019-05-01T06:12:10.080Z,9.88
2019-05-01T06:14:47.930Z,9.89
2019-05-01T06:17:38.514Z,9.89
2019-05-01T06:20:27.662Z,10.08
2019-05-01T06:23:24.956Z,10.23
2019-05-01T06:26:00.054Z,10.30
2019-05-01T06:28:26.334Z,10.37
2019-05-01T06:31:17.768Z,10.38
2019-05-01T06:33:48.620Z,10.24
2019-05-01T06:36:17.134Z,10.24
2019-05-01T06:38:47.384Z,10.43
2019-05-01T06:41:16.974Z,10.38
2019-05-01T06:44:07.379Z,10.39
2019-05-01T06:47:06.269Z,10.33
2019-05-01T06:49:51.194Z,10.46
2019-05-01T06:52:24.985Z,10.68
2019-05-01T06:54:54.083Z,10.75
2019-05-01T06:57:22.700Z,10.95
2019-05-01T06:59:51.279Z,10.91
2019-05-01T07:02:20.013Z,11.07
2019-05-01T07:04:49.311Z,10.82
2019-05-01T07:07:25.045Z,11.06
2019-05-01T07:09:51.018Z,11.01
2019-05-01T07:12:23.938Z,11.08
2019-05-01T07:14:52.487Z,11.16
2019-05-01T07:17:21.082Z,11.47
2019-05-01T07:19:56.431Z,11.47
2019-05-01T07:22:25.363Z,11.55
2019-05-01T07:24:54.033Z,11.81
2019-05-01T07:27:23.739Z,12.12
2019-05-01T07:29:55.716Z,11.85
2019-05-01T07:32:24.284Z,12.16
2019-05-01T07:34:56.864Z,12.77
2019-05-01T07:37:25.983Z,12.77
2019-05-01T07:39:57.016Z,12.90
2019-05-01T07:42:28.096Z,13.23
2019-05-01T07:44:59.110Z,13.46
2019-05-01T07:47:39.673Z,13.36
2019-05-01T07:50:09.659Z,13.35
2019-05-01T07:52:40.320Z,12.91
2019-05-01T07:55:12.970Z,13.46
2019-05-01T07:57:41.299Z,13.71
2019-05-01T08:00:19.432Z,13.52
2019-05-01T08:03:02.802Z,13.57
2019-05-01T08:05:40.867Z,13.65
2019-05-01T08:08:07.829Z,13.55
2019-05-01T08:10:37.278Z,13.52
2019-05-01T08:13:05.888Z,13.77
2019-05-01T08:15:34.460Z,13.95
2019-05-01T08:18:24.124Z,13.94
2019-05-01T08:20:59.229Z,13.99
2019-05-01T08:23:27.804Z,14.26
2019-05-01T08:25:56.395Z,14.09
2019-05-01T08:28:32.074Z,14.12
2019-05-01T08:31:29.552Z,13.90
2019-05-01T08:34:04.650Z,14.14
2019-05-01T08:36:33.250Z,13.93
2019-05-01T08:39:05.009Z,13.99
2019-05-01T08:41:33.086Z,14.08
2019-05-01T08:44:01.799Z,14.09
2019-05-01T08:46:39.803Z,14.21
2019-05-01T08:49:19.034Z,14.40
2019-05-01T08:51:47.969Z,14.23
2019-05-01T08:54:20.256Z,14.66
2019-05-01T08:56:52.997Z,14.98
2019-05-01T08:59:23.805Z,15.08
2019-05-01T09:01:50.622Z,14.82
2019-05-01T09:04:25.149Z,14.85
2019-05-01T09:06:51.901Z,14.87
2019-05-01T09:09:27.721Z,15.09
2019-05-01T09:11:56.320Z,14.81
2019-05-01T09:14:29.930Z,14.96
2019-05-01T09:17:03.233Z,15.30
2019-05-01T09:19:31.912Z,15.45
2019-05-01T09:22:03.445Z,15.06
2019-05-01T09:24:32.173Z,15.14
2019-05-01T09:27:34.835Z,14.89
2019-05-01T09:30:14.201Z,15.04
2019-05-01T09:32:45.476Z,15.42
2019-05-01T09:35:15.864Z,15.38
2019-05-01T09:37:44.806Z,15.55
2019-05-01T09:40:14.060Z,15.67
2019-05-01T09:42:42.990Z,15.69
2019-05-01T09:45:11.757Z,15.84
2019-05-01T09:47:40.395Z,15.73
2019-05-01T09:50:08.990Z,16.32
2019-05-01T09:52:49.147Z,15.78
2019-05-01T09:55:27.940Z,15.65
2019-05-01T09:57:56.931Z,16.24
2019-05-01T10:00:30.488Z,16.42
2019-05-01T10:02:59.246Z,16.54
2019-05-01T10:05:29.009Z,16.20
2019-05-01T10:08:04.096Z,16.27
2019-05-01T10:10:30.855Z,16.58
2019-05-01T10:12:59.623Z,16.97
2019-05-01T10:15:28.370Z,16.85
2019-05-01T10:17:58.704Z,17.12
2019-05-01T10:20:27.688Z,17.05
2019-05-01T10:22:57.665Z,17.19
2019-05-01T10:25:26.634Z,17.59
2019-05-01T10:28:00.870Z,17.25
2019-05-01T10:30:54.941Z,17.54
2019-05-01T10:33:28.994Z,17.75
2019-05-01T10:36:19.087Z,17.99
2019-05-01T10:38:46.845Z,18.14
2019-05-01T10:41:15.476Z,17.59
2019-05-01T10:43:44.053Z,17.26
2019-05-01T10:46:12.683Z,17.30
2019-05-01T10:48:41.664Z,17.51
2019-05-01T10:51:10.429Z,17.65
2019-05-01T10:53:39.406Z,17.58
2019-05-01T10:56:07.970Z,17.94
2019-05-01T10:58:36.637Z,18.09
2019-05-01T11:01:14.934Z,17.81
2019-05-01T11:03:43.739Z,18.05
2019-05-01T11:06:12.352Z,17.64
2019-05-01T11:08:40.939Z,17.63
2019-05-01T11:11:09.555Z,17.87
2019-05-01T11:13:38.205Z,18.03
2019-05-01T11:16:06.777Z,17.79
2019-05-01T11:18:38.910Z,18.04
2019-05-01T11:21:09.665Z,18.10
2019-05-01T11:23:41.086Z,17.79
2019-05-01T11:26:09.675Z,17.83
2019-05-01T11:28:41.088Z,18.29
2019-05-01T11:31:11.312Z,18.19
2019-05-01T11:34:06.154Z,18.26
2019-05-01T11:36:52.020Z,18.18
2019-05-01T11:39:29.752Z,18.68
2019-05-01T11:42:03.519Z,18.44
2019-05-01T11:44:33.400Z,18.51
2019-05-01T11:47:02.014Z,18.62
2019-05-01T11:49:34.052Z,18.77
2019-05-01T11:52:02.634Z,18.81
2019-05-01T11:54:31.416Z,18.26
2019-05-01T11:56:59.998Z,18.54
2019-05-01T11:59:28.591Z,18.71
2019-05-01T12:01:57.194Z,18.37
2019-05-01T12:04:25.820Z,18.17
2019-05-01T12:06:54.550Z,18.29
2019-05-01T12:09:23.201Z,18.54
2019-05-01T12:11:54.843Z,18.42
2019-05-01T12:14:23.479Z,18.17
2019-05-01T12:17:02.365Z,18.33
2019-05-01T12:19:30.987Z,18.39
2019-05-01T12:21:59.563Z,18.52
2019-05-01T12:24:28.485Z,18.91
2019-05-01T12:26:57.148Z,18.87
2019-05-01T12:29:25.733Z,18.86
2019-05-01T12:31:54.349Z,18.95
2019-05-01T12:34:22.918Z,19.04
2019-05-01T12:36:53.195Z,18.88
2019-05-01T12:39:21.764Z,18.88
2019-05-01T12:41:57.310Z,18.61
2019-05-01T12:44:31.166Z,18.80
2019-05-01T12:47:11.889Z,18.94
2019-05-01T12:49:40.521Z,19.15
2019-05-01T12:52:13.157Z,19.58
2019-05-01T12:54:48.321Z,18.93
2019-05-01T12:57:17.544Z,18.61
2019-05-01T12:59:46.168Z,19.09
2019-05-01T13:02:14.949Z,19.34
2019-05-01T13:04:43.701Z,19.20
2019-05-01T13:07:12.523Z,19.11
2019-05-01T13:09:41.132Z,18.99
2019-05-01T13:12:09.897Z,18.96
2019-05-01T13:14:38.878Z,19.09
2019-05-01T13:17:07.745Z,19.39
2019-05-01T13:19:36.772Z,19.37
2019-05-01T13:22:05.486Z,19.34
2019-05-01T13:24:39.618Z,19.41
2019-05-01T13:27:18.910Z,19.37
2019-05-01T13:29:53.197Z,19.28
2019-05-01T13:32:56.646Z,19.44
2019-05-01T13:35:26.577Z,19.39
2019-05-01T13:37:55.208Z,19.08
2019-05-01T13:40:25.192Z,19.06
2019-05-01T13:42:53.859Z,19.56
2019-05-01T13:45:22.807Z,19.28
2019-05-01T13:47:54.260Z,19.16
2019-05-01T13:50:22.312Z,19.25
2019-05-01T13:52:52.492Z,19.30
2019-05-01T13:55:21.447Z,19.36
2019-05-01T13:57:50.112Z,19.30
2019-05-01T14:00:21.918Z,19.44
2019-05-01T14:02:50.209Z,19.34
2019-05-01T14:05:19.370Z,19.45
2019-05-01T14:07:48.542Z,18.96
2019-05-01T14:10:17.272Z,19.11
2019-05-01T14:12:49.328Z,19.27
2019-05-01T14:15:18.079Z,19.42
2019-05-01T14:17:47.089Z,19.20
2019-05-01T14:20:34.299Z,19.03
2019-05-01T14:23:07.921Z,19.03
2019-05-01T14:25:54.419Z,19.44
2019-05-01T14:28:24.658Z,19.21
2019-05-01T14:30:56.294Z,18.97
2019-05-01T14:33:30.173Z,19.51
2019-05-01T14:36:02.993Z,19.61
2019-05-01T14:38:34.827Z,19.60
2019-05-01T14:41:07.534Z,19.34
2019-05-01T14:43:36.532Z,18.81
2019-05-01T14:46:05.145Z,19.25
2019-05-01T14:48:33.901Z,19.31
2019-05-01T14:51:03.885Z,19.24
2019-05-01T14:53:32.494Z,19.19
2019-05-01T14:56:01.287Z,19.30
2019-05-01T14:58:34.405Z,19.31
2019-05-01T15:01:02.992Z,19.64
2019-05-01T15:03:31.596Z,19.34
2019-05-01T15:06:00.338Z,19.35
2019-05-01T15:08:28.984Z,19.11
2019-05-01T15:10:57.558Z,19.56
2019-05-01T15:13:54.322Z,19.49
2019-05-01T15:16:33.354Z,19.42
2019-05-01T15:19:05.317Z,19.23
2019-05-01T15:21:33.940Z,19.45
2019-05-01T15:24:02.568Z,19.34
2019-05-01T15:26:31.711Z,18.98
2019-05-01T15:29:00.485Z,18.99
2019-05-01T15:31:30.637Z,18.87
2019-05-01T15:33:59.245Z,18.81
2019-05-01T15:36:27.838Z,18.85
2019-05-01T15:38:57.048Z,18.77
2019-05-01T15:41:51.459Z,18.83
2019-05-01T15:44:29.521Z,18.81
2019-05-01T15:46:58.102Z,18.73
2019-05-01T15:49:27.120Z,18.66
2019-05-01T15:51:55.938Z,18.99
2019-05-01T15:54:26.088Z,18.76
2019-05-01T15:56:56.268Z,18.54
2019-05-01T15:59:25.041Z,18.90
2019-05-01T16:01:54.017Z,18.99
2019-05-01T16:04:22.766Z,19.05
2019-05-01T16:06:51.339Z,18.96
2019-05-01T16:09:19.937Z,18.96
2019-05-01T16:12:12.245Z,18.39
2019-05-01T16:14:41.986Z,18.49
2019-05-01T16:17:16.416Z,18.39
2019-05-01T16:19:45.009Z,18.44
2019-05-01T16:22:13.601Z,18.54
2019-05-01T16:24:42.186Z,18.68
2019-05-01T16:27:10.766Z,18.75
2019-05-01T16:29:39.581Z,18.85
2019-05-01T16:32:08.347Z,18.67
2019-05-01T16:34:37.283Z,19.00
2019-05-01T16:37:06.034Z,18.75
2019-05-01T16:39:49.921Z,18.69
2019-05-01T16:42:24.394Z,18.69
2019-05-01T16:44:52.981Z,18.57
2019-05-01T16:47:21.727Z,18.58
2019-05-01T16:50:11.388Z,18.42
2019-05-01T16:52:40.840Z,18.30
2019-05-01T16:55:11.347Z,18.23
2019-05-01T16:57:41.493Z,18.22
2019-05-01T17:00:12.266Z,18.27
2019-05-01T17:03:01.782Z,18.19
2019-05-01T17:05:40.893Z,18.15
2019-05-01T17:08:36.315Z,18.09
2019-05-01T17:11:04.081Z,17.95
2019-05-01T17:13:33.000Z,17.98
2019-05-01T17:16:04.660Z,17.92
2019-05-01T17:18:33.254Z,17.94
2019-05-01T17:21:03.438Z,17.94
2019-05-01T17:23:32.061Z,17.83
2019-05-01T17:26:02.235Z,17.69
2019-05-01T17:28:32.775Z,17.72
2019-05-01T17:31:02.942Z,17.59
2019-05-01T17:33:33.091Z,17.62
2019-05-01T17:36:04.029Z,17.56
2019-05-01T17:38:32.624Z,17.65
2019-05-01T17:41:01.217Z,17.65
2019-05-01T17:43:30.186Z,17.46
2019-05-01T17:45:58.805Z,17.57
2019-05-01T17:48:28.792Z,17.52
2019-05-01T17:51:00.021Z,17.38
2019-05-01T17:53:28.589Z,17.42
2019-05-01T17:55:59.516Z,17.32
2019-05-01T17:58:29.773Z,17.20
2019-05-01T18:01:27.788Z,17.13
2019-05-01T18:04:08.027Z,16.82
2019-05-01T18:06:42.025Z,16.72
2019-05-01T18:09:13.606Z,16.57
2019-05-01T18:11:39.403Z,16.34
2019-05-01T18:14:10.801Z,16.32
2019-05-01T18:16:42.797Z,16.40
2019-05-01T18:19:13.749Z,16.37
2019-05-01T18:21:46.773Z,16.26
2019-05-01T18:24:40.923Z,16.09
2019-05-01T18:27:23.842Z,15.97
2019-05-01T18:29:54.776Z,15.80
2019-05-01T18:32:36.281Z,15.67
2019-05-01T18:35:08.982Z,15.52
2019-05-01T18:37:40.318Z,15.36
2019-05-01T18:40:19.131Z,15.30
2019-05-01T18:42:47.876Z,15.16
2019-05-01T18:45:37.220Z,15.02
2019-05-01T18:48:09.188Z,14.92
2019-05-01T18:50:37.809Z,14.65
2019-05-01T18:53:11.474Z,14.65
2019-05-01T18:55:38.457Z,14.49
2019-05-01T18:58:09.378Z,14.36
2019-05-01T19:00:39.328Z,14.36
2019-05-01T19:03:08.319Z,14.32
2019-05-01T19:05:43.180Z,14.15
2019-05-01T19:08:10.298Z,13.89
2019-05-01T19:10:38.827Z,13.72
2019-05-01T19:13:07.814Z,13.51
2019-05-01T19:15:36.382Z,13.38
2019-05-01T19:18:05.016Z,13.18
2019-05-01T19:20:35.230Z,13.03
2019-05-01T19:23:07.333Z,13.02
2019-05-01T19:25:36.088Z,12.96
2019-05-01T19:28:09.009Z,12.91
2019-05-01T19:30:38.009Z,12.78
2019-05-01T19:33:06.671Z,12.81
2019-05-01T19:35:40.696Z,12.80
2019-05-01T19:38:09.690Z,12.70
2019-05-01T19:40:38.335Z,12.66
2019-05-01T19:43:26.366Z,12.63
2019-05-01T19:45:54.929Z,12.50
2019-05-01T19:48:23.495Z,12.40
2019-05-01T19:50:52.083Z,12.35
2019-05-01T19:53:21.031Z,12.27
2019-05-01T19:55:50.083Z,12.15
2019-05-01T19:58:18.711Z,12.17
2019-05-01T20:00:55.195Z,12.23
2019-05-01T20:03:23.808Z,12.23
2019-05-01T20:05:52.765Z,12.26
2019-05-01T20:08:21.351Z,12.22
2019-05-01T20:10:50.366Z,12.09
2019-05-01T20:13:18.933Z,12.07
2019-05-01T20:15:49.726Z,12.09
2019-05-01T20:18:18.310Z,12.07
2019-05-01T20:20:47.119Z,12.00
2019-05-01T20:23:15.674Z,11.83
2019-05-01T20:25:44.706Z,11.74
2019-05-01T20:28:13.293Z,11.67
2019-05-01T20:30:42.227Z,11.63
2019-05-01T20:33:12.204Z,11.60
2019-05-01T20:35:41.162Z,11.69
2019-05-01T20:38:09.715Z,11.64
2019-05-01T20:40:38.296Z,11.61
2019-05-01T20:43:09.052Z,11.55
2019-05-01T20:45:38.055Z,11.46
2019-05-01T20:48:06.929Z,11.44
2019-05-01T20:50:35.568Z,11.41
2019-05-01T20:53:04.474Z,11.37
2019-05-01T20:55:33.392Z,11.41
2019-05-01T20:58:18.552Z,11.19
2019-05-01T21:00:53.432Z,11.09
2019-05-01T21:03:19.597Z,11.06
2019-05-01T21:05:57.076Z,10.99
2019-05-01T21:08:39.272Z,10.87
2019-05-01T21:11:13.052Z,10.81
2019-05-01T21:13:41.643Z,10.67
2019-05-01T21:16:10.610Z,10.53
2019-05-01T21:18:40.555Z,10.48
2019-05-01T21:21:09.329Z,10.48
2019-05-01T21:23:40.312Z,10.43
2019-05-01T21:26:08.920Z,10.39
2019-05-01T21:28:37.848Z,10.34
2019-05-01T21:31:06.603Z,10.29
2019-05-01T21:33:35.158Z,10.32
2019-05-01T21:36:04.805Z,10.25
2019-05-01T21:38:34.009Z,10.20
2019-05-01T21:41:02.936Z,10.19
2019-05-01T21:43:35.175Z,10.25
2019-05-01T21:46:04.051Z,10.31
2019-05-01T21:48:33.388Z,10.29
2019-05-01T21:51:07.268Z,10.24
2019-05-01T21:53:37.297Z,10.25
2019-05-01T21:56:06.132Z,10.12
2019-05-01T21:58:35.954Z,10.07
2019-05-01T22:01:06.211Z,9.95
2019-05-01T22:03:34.808Z,9.84
2019-05-01T22:06:05.299Z,9.76
2019-05-01T22:08:38.592Z,9.87
2019-05-01T22:11:05.004Z,9.72
2019-05-01T22:13:33.574Z,9.69
2019-05-01T22:16:09.038Z,9.69
2019-05-01T22:18:55.496Z,9.81
2019-05-01T22:21:52.297Z,9.74
2019-05-01T22:24:39.008Z,9.73
2019-05-01T22:27:12.256Z,9.70
2019-05-01T22:29:47.182Z,9.62
2019-05-01T22:32:34.081Z,9.52
2019-05-01T22:35:29.213Z,9.48
2019-05-01T22:37:57.809Z,9.40
2019-05-01T22:40:41.012Z,9.27
2019-05-01T22:43:09.591Z,9.26
2019-05-01T22:45:40.504Z,9.21
2019-05-01T22:48:09.413Z,9.08
2019-05-01T22:50:37.996Z,9.08
2019-05-01T22:53:07.845Z,9.03
2019-05-01T22:55:36.860Z,8.93
2019-05-01T22:58:07.896Z,8.88
2019-05-01T23:00:56.515Z,8.85
2019-05-01T23:03:48.844Z,8.80
2019-05-01T23:06:17.539Z,8.85
2019-05-01T23:08:47.670Z,8.85
2019-05-01T23:11:20.312Z,8.85
2019-05-01T23:13:46.873Z,8.80
2019-05-01T23:16:17.036Z,8.83
2019-05-01T23:18:47.044Z,8.65
2019-05-01T23:21:16.246Z,8.65
2019-05-01T23:23:44.886Z,8.58
2019-05-01T23:26:16.558Z,8.59
2019-05-01T23:28:45.260Z,8.49
2019-05-01T23:31:13.888Z,8.43
2019-05-01T23:33:45.680Z,8.33
2019-05-01T23:36:23.295Z,8.31
2019-05-01T23:38:44.660Z,8.30
2019-05-01T23:41:13.231Z,8.18
2019-05-01T23:43:42.491Z,8.09
2019-05-01T23:46:12.613Z,7.97
2019-05-01T23:48:41.180Z,7.97
2019-05-01T23:51:11.209Z,7.97
2019-05-01T23:53:44.298Z,7.93
2019-05-01T23:56:10.261Z,7.87
2019-05-01T23:58:39.024Z,7.83
